sensor_id;sensor_type;location;lat;lon;timestamp;P1;durP1;ratioP1;P2;durP2;ratioP2
76292;SDS011;67256;51.154;4.164;2023-04-24T00:00:53;17.25;;;12.55;;
76292;SDS011;67256;51.154;4.164;2023-04-24T00:03:21;21.98;;;13.95;;
76292;SDS011;67256;51.154;4.164;2023-04-24T00:05:47;26.05;;;12.57;;
76292;SDS011;67256;51.154;4.164;2023-04-24T00:08:13;18.60;;;13.05;;
76292;SDS011;67256;51.154;4.164;2023-04-24T00:10:39;20.85;;;11.82;;
76292;SDS011;67256;51.154;4.164;2023-04-24T00:13:05;23.83;;;13.10;;
76292;SDS011;67256;51.154;4.164;2023-04-24T00:15:30;20.92;;;13.40;;
76292;SDS011;67256;51.154;4.164;2023-04-24T00:17:56;18.83;;;13.30;;
76292;SDS011;67256;51.154;4.164;2023-04-24T00:20:22;22.45;;;12.00;;
76292;SDS011;67256;51.154;4.164;2023-04-24T00:22:48;21.90;;;12.77;;
76292;SDS011;67256;51.154;4.164;2023-04-24T00:25:14;18.05;;;12.50;;
76292;SDS011;67256;51.154;4.164;2023-04-24T00:27:40;19.30;;;12.45;;
76292;SDS011;67256;51.154;4.164;2023-04-24T00:30:06;19.30;;;14.23;;
76292;SDS011;67256;51.154;4.164;2023-04-24T00:32:32;21.70;;;13.63;;
76292;SDS011;67256;51.154;4.164;2023-04-24T00:34:57;23.23;;;14.48;;
76292;SDS011;67256;51.154;4.164;2023-04-24T00:37:23;22.17;;;15.00;;
76292;SDS011;67256;51.154;4.164;2023-04-24T00:39:49;23.50;;;14.35;;
76292;SDS011;67256;51.154;4.164;2023-04-24T00:42:14;20.80;;;13.73;;
76292;SDS011;67256;51.154;4.164;2023-04-24T00:44:40;24.73;;;14.88;;
76292;SDS011;67256;51.154;4.164;2023-04-24T00:47:06;23.02;;;14.88;;
76292;SDS011;67256;51.154;4.164;2023-04-24T00:49:32;21.25;;;14.88;;
76292;SDS011;67256;51.154;4.164;2023-04-24T00:51:58;25.35;;;15.35;;
76292;SDS011;67256;51.154;4.164;2023-04-24T00:54:24;17.13;;;14.27;;
76292;SDS011;67256;51.154;4.164;2023-04-24T00:56:50;17.80;;;14.13;;
76292;SDS011;67256;51.154;4.164;2023-04-24T00:59:17;23.40;;;14.18;;
76292;SDS011;67256;51.154;4.164;2023-04-24T01:01:43;22.75;;;14.75;;
76292;SDS011;67256;51.154;4.164;2023-04-24T01:04:11;15.95;;;13.32;;
76292;SDS011;67256;51.154;4.164;2023-04-24T01:06:38;18.60;;;14.23;;
76292;SDS011;67256;51.154;4.164;2023-04-24T01:09:05;16.80;;;12.25;;
76292;SDS011;67256;51.154;4.164;2023-04-24T01:11:33;22.13;;;13.35;;
76292;SDS011;67256;51.154;4.164;2023-04-24T01:13:58;16.48;;;12.80;;
76292;SDS011;67256;51.154;4.164;2023-04-24T01:16:25;19.98;;;11.77;;
76292;SDS011;67256;51.154;4.164;2023-04-24T01:18:50;14.50;;;10.73;;
76292;SDS011;67256;51.154;4.164;2023-04-24T01:21:16;17.52;;;11.43;;
76292;SDS011;67256;51.154;4.164;2023-04-24T01:23:44;13.90;;;10.27;;
76292;SDS011;67256;51.154;4.164;2023-04-24T01:26:10;14.10;;;10.15;;
76292;SDS011;67256;51.154;4.164;2023-04-24T01:28:37;14.45;;;10.70;;
76292;SDS011;67256;51.154;4.164;2023-04-24T01:31:03;10.90;;;8.73;;
76292;SDS011;67256;51.154;4.164;2023-04-24T01:33:29;12.10;;;9.60;;
76292;SDS011;67256;51.154;4.164;2023-04-24T01:35:54;10.88;;;8.40;;
76292;SDS011;67256;51.154;4.164;2023-04-24T01:38:20;11.80;;;7.57;;
76292;SDS011;67256;51.154;4.164;2023-04-24T01:40:47;10.93;;;7.88;;
76292;SDS011;67256;51.154;4.164;2023-04-24T01:43:13;12.95;;;7.88;;
76292;SDS011;67256;51.154;4.164;2023-04-24T01:45:39;13.57;;;8.48;;
76292;SDS011;67256;51.154;4.164;2023-04-24T01:48:05;10.80;;;8.50;;
76292;SDS011;67256;51.154;4.164;2023-04-24T01:50:30;12.48;;;7.88;;
76292;SDS011;67256;51.154;4.164;2023-04-24T01:52:56;14.18;;;9.52;;
76292;SDS011;67256;51.154;4.164;2023-04-24T01:55:22;11.93;;;9.07;;
76292;SDS011;67256;51.154;4.164;2023-04-24T01:57:48;12.82;;;10.07;;
76292;SDS011;67256;51.154;4.164;2023-04-24T02:00:14;13.00;;;9.85;;
76292;SDS011;67256;51.154;4.164;2023-04-24T02:02:40;15.65;;;10.38;;
76292;SDS011;67256;51.154;4.164;2023-04-24T02:05:07;16.38;;;9.73;;
76292;SDS011;67256;51.154;4.164;2023-04-24T02:07:33;16.42;;;10.55;;
76292;SDS011;67256;51.154;4.164;2023-04-24T02:09:59;13.15;;;9.50;;
76292;SDS011;67256;51.154;4.164;2023-04-24T02:12:25;13.85;;;10.88;;
76292;SDS011;67256;51.154;4.164;2023-04-24T02:14:50;12.95;;;10.85;;
76292;SDS011;67256;51.154;4.164;2023-04-24T02:17:16;12.43;;;11.13;;
76292;SDS011;67256;51.154;4.164;2023-04-24T02:19:44;15.65;;;11.48;;
76292;SDS011;67256;51.154;4.164;2023-04-24T02:22:11;16.48;;;12.27;;
76292;SDS011;67256;51.154;4.164;2023-04-24T02:24:37;14.13;;;11.82;;
76292;SDS011;67256;51.154;4.164;2023-04-24T02:27:03;15.65;;;11.98;;
76292;SDS011;67256;51.154;4.164;2023-04-24T02:29:29;13.15;;;11.75;;
76292;SDS011;67256;51.154;4.164;2023-04-24T02:31:55;13.55;;;11.60;;
76292;SDS011;67256;51.154;4.164;2023-04-24T02:34:21;13.50;;;11.57;;
76292;SDS011;67256;51.154;4.164;2023-04-24T02:36:48;13.20;;;11.25;;
76292;SDS011;67256;51.154;4.164;2023-04-24T02:39:13;12.38;;;11.07;;
76292;SDS011;67256;51.154;4.164;2023-04-24T02:41:41;15.32;;;9.98;;
76292;SDS011;67256;51.154;4.164;2023-04-24T02:44:10;12.35;;;11.10;;
76292;SDS011;67256;51.154;4.164;2023-04-24T02:46:35;12.73;;;11.05;;
76292;SDS011;67256;51.154;4.164;2023-04-24T02:49:01;13.10;;;10.38;;
76292;SDS011;67256;51.154;4.164;2023-04-24T02:51:27;12.75;;;11.45;;
76292;SDS011;67256;51.154;4.164;2023-04-24T02:53:53;12.85;;;11.48;;
76292;SDS011;67256;51.154;4.164;2023-04-24T02:56:19;11.77;;;10.57;;
76292;SDS011;67256;51.154;4.164;2023-04-24T02:58:45;12.07;;;10.32;;
76292;SDS011;67256;51.154;4.164;2023-04-24T03:01:11;13.40;;;11.40;;
76292;SDS011;67256;51.154;4.164;2023-04-24T03:03:37;11.77;;;10.57;;
76292;SDS011;67256;51.154;4.164;2023-04-24T03:06:04;13.63;;;10.63;;
76292;SDS011;67256;51.154;4.164;2023-04-24T03:08:31;15.30;;;12.43;;
76292;SDS011;67256;51.154;4.164;2023-04-24T03:10:57;15.38;;;12.80;;
76292;SDS011;67256;51.154;4.164;2023-04-24T03:13:22;16.40;;;12.60;;
76292;SDS011;67256;51.154;4.164;2023-04-24T03:15:48;15.85;;;11.77;;
76292;SDS011;67256;51.154;4.164;2023-04-24T03:18:14;12.35;;;9.80;;
76292;SDS011;67256;51.154;4.164;2023-04-24T03:20:40;14.63;;;11.93;;
76292;SDS011;67256;51.154;4.164;2023-04-24T03:23:06;16.48;;;13.25;;
76292;SDS011;67256;51.154;4.164;2023-04-24T03:25:31;20.20;;;12.70;;
76292;SDS011;67256;51.154;4.164;2023-04-24T03:27:57;14.48;;;8.77;;
76292;SDS011;67256;51.154;4.164;2023-04-24T03:30:23;14.90;;;9.60;;
76292;SDS011;67256;51.154;4.164;2023-04-24T03:32:48;8.27;;;4.80;;
76292;SDS011;67256;51.154;4.164;2023-04-24T03:35:14;10.50;;;4.00;;
76292;SDS011;67256;51.154;4.164;2023-04-24T03:37:40;6.97;;;2.85;;
76292;SDS011;67256;51.154;4.164;2023-04-24T03:40:06;8.38;;;3.15;;
76292;SDS011;67256;51.154;4.164;2023-04-24T03:42:33;9.25;;;3.50;;
76292;SDS011;67256;51.154;4.164;2023-04-24T03:44:58;7.28;;;3.63;;
76292;SDS011;67256;51.154;4.164;2023-04-24T03:47:24;8.85;;;3.33;;
76292;SDS011;67256;51.154;4.164;2023-04-24T03:49:50;8.85;;;3.50;;
76292;SDS011;67256;51.154;4.164;2023-04-24T03:52:16;10.73;;;3.40;;
76292;SDS011;67256;51.154;4.164;2023-04-24T03:54:41;9.98;;;4.20;;
76292;SDS011;67256;51.154;4.164;2023-04-24T03:57:07;5.85;;;3.85;;
76292;SDS011;67256;51.154;4.164;2023-04-24T03:59:33;6.15;;;3.75;;
76292;SDS011;67256;51.154;4.164;2023-04-24T04:01:58;7.00;;;4.28;;
76292;SDS011;67256;51.154;4.164;2023-04-24T04:04:24;9.65;;;4.20;;
76292;SDS011;67256;51.154;4.164;2023-04-24T04:06:50;11.82;;;4.85;;
76292;SDS011;67256;51.154;4.164;2023-04-24T04:09:16;10.13;;;5.72;;
76292;SDS011;67256;51.154;4.164;2023-04-24T04:11:41;9.77;;;5.63;;
76292;SDS011;67256;51.154;4.164;2023-04-24T04:14:07;9.88;;;5.53;;
76292;SDS011;67256;51.154;4.164;2023-04-24T04:16:33;10.35;;;6.63;;
76292;SDS011;67256;51.154;4.164;2023-04-24T04:18:58;11.85;;;6.78;;
76292;SDS011;67256;51.154;4.164;2023-04-24T04:21:24;11.88;;;7.57;;
76292;SDS011;67256;51.154;4.164;2023-04-24T04:23:51;17.48;;;9.25;;
76292;SDS011;67256;51.154;4.164;2023-04-24T04:26:17;15.23;;;8.60;;
76292;SDS011;67256;51.154;4.164;2023-04-24T04:28:44;15.38;;;9.25;;
76292;SDS011;67256;51.154;4.164;2023-04-24T04:31:09;17.45;;;9.80;;
76292;SDS011;67256;51.154;4.164;2023-04-24T04:33:35;15.30;;;9.30;;
76292;SDS011;67256;51.154;4.164;2023-04-24T04:36:03;16.60;;;11.13;;
76292;SDS011;67256;51.154;4.164;2023-04-24T04:38:29;13.07;;;9.32;;
76292;SDS011;67256;51.154;4.164;2023-04-24T04:40:55;16.88;;;11.18;;
76292;SDS011;67256;51.154;4.164;2023-04-24T04:43:24;23.60;;;10.43;;
76292;SDS011;67256;51.154;4.164;2023-04-24T04:45:49;17.92;;;11.18;;
76292;SDS011;67256;51.154;4.164;2023-04-24T04:48:16;18.67;;;10.75;;
76292;SDS011;67256;51.154;4.164;2023-04-24T04:50:43;19.33;;;10.68;;
76292;SDS011;67256;51.154;4.164;2023-04-24T04:53:08;17.05;;;10.25;;
76292;SDS011;67256;51.154;4.164;2023-04-24T04:55:34;17.00;;;10.30;;
76292;SDS011;67256;51.154;4.164;2023-04-24T04:57:59;19.50;;;9.95;;
76292;SDS011;67256;51.154;4.164;2023-04-24T05:00:26;11.93;;;8.60;;
76292;SDS011;67256;51.154;4.164;2023-04-24T05:02:53;14.43;;;9.00;;
76292;SDS011;67256;51.154;4.164;2023-04-24T05:05:19;13.00;;;9.13;;
76292;SDS011;67256;51.154;4.164;2023-04-24T05:07:45;15.63;;;9.50;;
76292;SDS011;67256;51.154;4.164;2023-04-24T05:10:11;14.90;;;8.57;;
76292;SDS011;67256;51.154;4.164;2023-04-24T05:12:36;19.60;;;8.90;;
76292;SDS011;67256;51.154;4.164;2023-04-24T05:15:02;17.17;;;9.63;;
76292;SDS011;67256;51.154;4.164;2023-04-24T05:17:28;18.02;;;10.73;;
76292;SDS011;67256;51.154;4.164;2023-04-24T05:19:54;17.45;;;8.27;;
76292;SDS011;67256;51.154;4.164;2023-04-24T05:22:20;16.75;;;8.65;;
76292;SDS011;67256;51.154;4.164;2023-04-24T05:24:46;15.50;;;8.07;;
76292;SDS011;67256;51.154;4.164;2023-04-24T05:27:12;13.70;;;9.05;;
76292;SDS011;67256;51.154;4.164;2023-04-24T05:29:38;17.42;;;9.38;;
76292;SDS011;67256;51.154;4.164;2023-04-24T05:32:05;17.23;;;10.10;;
76292;SDS011;67256;51.154;4.164;2023-04-24T05:34:30;23.02;;;9.80;;
76292;SDS011;67256;51.154;4.164;2023-04-24T05:36:56;23.45;;;10.30;;
76292;SDS011;67256;51.154;4.164;2023-04-24T05:39:22;19.30;;;11.13;;
76292;SDS011;67256;51.154;4.164;2023-04-24T05:41:50;21.98;;;10.60;;
76292;SDS011;67256;51.154;4.164;2023-04-24T05:44:15;19.35;;;11.02;;
76292;SDS011;67256;51.154;4.164;2023-04-24T05:46:41;20.30;;;10.95;;
76292;SDS011;67256;51.154;4.164;2023-04-24T05:49:07;17.83;;;10.85;;
76292;SDS011;67256;51.154;4.164;2023-04-24T05:51:32;24.63;;;10.40;;
76292;SDS011;67256;51.154;4.164;2023-04-24T05:53:58;13.80;;;10.20;;
76292;SDS011;67256;51.154;4.164;2023-04-24T05:56:24;16.33;;;11.32;;
76292;SDS011;67256;51.154;4.164;2023-04-24T05:58:50;24.25;;;11.90;;
76292;SDS011;67256;51.154;4.164;2023-04-24T06:01:15;17.08;;;11.35;;
76292;SDS011;67256;51.154;4.164;2023-04-24T06:03:41;22.60;;;12.13;;
76292;SDS011;67256;51.154;4.164;2023-04-24T06:06:07;25.65;;;12.88;;
76292;SDS011;67256;51.154;4.164;2023-04-24T06:08:33;32.05;;;15.77;;
76292;SDS011;67256;51.154;4.164;2023-04-24T06:11:00;36.58;;;16.38;;
76292;SDS011;67256;51.154;4.164;2023-04-24T06:13:26;30.25;;;15.90;;
76292;SDS011;67256;51.154;4.164;2023-04-24T06:15:52;33.33;;;12.38;;
76292;SDS011;67256;51.154;4.164;2023-04-24T06:18:18;25.33;;;12.60;;
76292;SDS011;67256;51.154;4.164;2023-04-24T06:20:44;24.42;;;12.73;;
76292;SDS011;67256;51.154;4.164;2023-04-24T06:23:10;25.38;;;13.13;;
76292;SDS011;67256;51.154;4.164;2023-04-24T06:25:36;24.13;;;12.02;;
76292;SDS011;67256;51.154;4.164;2023-04-24T06:28:02;22.58;;;11.48;;
76292;SDS011;67256;51.154;4.164;2023-04-24T06:30:28;29.30;;;12.18;;
76292;SDS011;67256;51.154;4.164;2023-04-24T06:32:54;22.58;;;11.35;;
76292;SDS011;67256;51.154;4.164;2023-04-24T06:35:20;22.88;;;10.32;;
76292;SDS011;67256;51.154;4.164;2023-04-24T06:37:46;18.77;;;9.70;;
76292;SDS011;67256;51.154;4.164;2023-04-24T06:40:11;14.20;;;8.48;;
76292;SDS011;67256;51.154;4.164;2023-04-24T06:42:37;25.40;;;8.85;;
76292;SDS011;67256;51.154;4.164;2023-04-24T06:45:03;21.20;;;7.38;;
76292;SDS011;67256;51.154;4.164;2023-04-24T06:47:30;13.15;;;6.35;;
76292;SDS011;67256;51.154;4.164;2023-04-24T06:49:55;15.45;;;5.57;;
76292;SDS011;67256;51.154;4.164;2023-04-24T06:52:22;11.95;;;5.05;;
76292;SDS011;67256;51.154;4.164;2023-04-24T06:54:47;10.30;;;4.97;;
76292;SDS011;67256;51.154;4.164;2023-04-24T06:57:13;11.00;;;4.78;;
76292;SDS011;67256;51.154;4.164;2023-04-24T06:59:41;11.25;;;4.78;;
76292;SDS011;67256;51.154;4.164;2023-04-24T07:02:07;14.40;;;4.35;;
76292;SDS011;67256;51.154;4.164;2023-04-24T07:04:32;11.38;;;4.32;;
76292;SDS011;67256;51.154;4.164;2023-04-24T07:06:58;11.57;;;4.10;;
76292;SDS011;67256;51.154;4.164;2023-04-24T07:09:24;16.58;;;4.78;;
76292;SDS011;67256;51.154;4.164;2023-04-24T07:11:51;11.93;;;4.75;;
76292;SDS011;67256;51.154;4.164;2023-04-24T07:14:17;13.77;;;4.43;;
76292;SDS011;67256;51.154;4.164;2023-04-24T07:16:43;16.17;;;5.57;;
76292;SDS011;67256;51.154;4.164;2023-04-24T07:19:10;12.40;;;4.80;;
76292;SDS011;67256;51.154;4.164;2023-04-24T07:21:36;19.08;;;5.82;;
76292;SDS011;67256;51.154;4.164;2023-04-24T07:24:01;15.43;;;5.43;;
76292;SDS011;67256;51.154;4.164;2023-04-24T07:26:28;16.05;;;5.50;;
76292;SDS011;67256;51.154;4.164;2023-04-24T07:28:54;18.60;;;5.28;;
76292;SDS011;67256;51.154;4.164;2023-04-24T07:31:20;11.98;;;4.10;;
76292;SDS011;67256;51.154;4.164;2023-04-24T07:33:46;15.52;;;4.47;;
76292;SDS011;67256;51.154;4.164;2023-04-24T07:36:12;17.42;;;4.18;;
76292;SDS011;67256;51.154;4.164;2023-04-24T07:38:42;17.20;;;5.03;;
76292;SDS011;67256;51.154;4.164;2023-04-24T07:41:08;24.20;;;5.47;;
76292;SDS011;67256;51.154;4.164;2023-04-24T07:43:34;22.10;;;5.70;;
76292;SDS011;67256;51.154;4.164;2023-04-24T07:46:00;11.73;;;4.10;;
76292;SDS011;67256;51.154;4.164;2023-04-24T07:48:26;18.60;;;5.10;;
76292;SDS011;67256;51.154;4.164;2023-04-24T07:50:52;16.90;;;5.00;;
76292;SDS011;67256;51.154;4.164;2023-04-24T07:53:18;16.52;;;5.55;;
76292;SDS011;67256;51.154;4.164;2023-04-24T07:55:44;14.20;;;4.53;;
76292;SDS011;67256;51.154;4.164;2023-04-24T07:58:09;18.35;;;5.13;;
76292;SDS011;67256;51.154;4.164;2023-04-24T08:00:35;15.90;;;5.15;;
76292;SDS011;67256;51.154;4.164;2023-04-24T08:03:01;20.60;;;5.05;;
76292;SDS011;67256;51.154;4.164;2023-04-24T08:05:27;13.60;;;5.22;;
76292;SDS011;67256;51.154;4.164;2023-04-24T08:07:53;14.35;;;4.72;;
76292;SDS011;67256;51.154;4.164;2023-04-24T08:10:20;13.98;;;4.55;;
76292;SDS011;67256;51.154;4.164;2023-04-24T08:12:47;19.63;;;4.68;;
76292;SDS011;67256;51.154;4.164;2023-04-24T08:15:12;13.07;;;4.20;;
76292;SDS011;67256;51.154;4.164;2023-04-24T08:17:38;12.20;;;3.60;;
76292;SDS011;67256;51.154;4.164;2023-04-24T08:20:04;16.20;;;4.32;;
76292;SDS011;67256;51.154;4.164;2023-04-24T08:22:31;16.58;;;4.65;;
76292;SDS011;67256;51.154;4.164;2023-04-24T08:24:57;14.30;;;4.30;;
76292;SDS011;67256;51.154;4.164;2023-04-24T08:27:24;16.75;;;4.07;;
76292;SDS011;67256;51.154;4.164;2023-04-24T08:29:52;10.65;;;3.90;;
76292;SDS011;67256;51.154;4.164;2023-04-24T08:32:18;13.88;;;4.15;;
76292;SDS011;67256;51.154;4.164;2023-04-24T08:34:44;20.27;;;5.63;;
76292;SDS011;67256;51.154;4.164;2023-04-24T08:37:10;13.13;;;4.28;;
76292;SDS011;67256;51.154;4.164;2023-04-24T08:39:36;13.55;;;4.60;;
76292;SDS011;67256;51.154;4.164;2023-04-24T08:42:02;17.35;;;4.65;;
76292;SDS011;67256;51.154;4.164;2023-04-24T08:44:32;10.73;;;5.38;;
76292;SDS011;67256;51.154;4.164;2023-04-24T08:47:01;18.45;;;5.90;;
76292;SDS011;67256;51.154;4.164;2023-04-24T08:49:28;15.40;;;5.55;;
76292;SDS011;67256;51.154;4.164;2023-04-24T08:51:54;11.50;;;5.07;;
76292;SDS011;67256;51.154;4.164;2023-04-24T08:54:20;14.43;;;4.70;;
76292;SDS011;67256;51.154;4.164;2023-04-24T08:56:47;13.45;;;3.92;;
76292;SDS011;67256;51.154;4.164;2023-04-24T08:59:14;14.38;;;4.60;;
76292;SDS011;67256;51.154;4.164;2023-04-24T09:01:40;12.65;;;4.22;;
76292;SDS011;67256;51.154;4.164;2023-04-24T09:04:07;14.93;;;4.43;;
76292;SDS011;67256;51.154;4.164;2023-04-24T09:06:37;11.63;;;4.32;;
76292;SDS011;67256;51.154;4.164;2023-04-24T09:09:04;15.00;;;5.03;;
76292;SDS011;67256;51.154;4.164;2023-04-24T09:11:30;14.77;;;3.90;;
76292;SDS011;67256;51.154;4.164;2023-04-24T09:13:57;11.63;;;3.55;;
76292;SDS011;67256;51.154;4.164;2023-04-24T09:16:24;11.60;;;3.95;;
76292;SDS011;67256;51.154;4.164;2023-04-24T09:18:51;11.68;;;4.18;;
76292;SDS011;67256;51.154;4.164;2023-04-24T09:21:17;15.27;;;5.07;;
76292;SDS011;67256;51.154;4.164;2023-04-24T09:23:45;11.85;;;3.83;;
76292;SDS011;67256;51.154;4.164;2023-04-24T09:26:11;10.52;;;3.40;;
76292;SDS011;67256;51.154;4.164;2023-04-24T09:28:41;13.88;;;3.85;;
76292;SDS011;67256;51.154;4.164;2023-04-24T09:31:11;11.40;;;3.00;;
76292;SDS011;67256;51.154;4.164;2023-04-24T09:33:40;10.38;;;3.30;;
76292;SDS011;67256;51.154;4.164;2023-04-24T09:36:29;8.48;;;3.03;;
76292;SDS011;67256;51.154;4.164;2023-04-24T09:39:03;9.18;;;2.90;;
76292;SDS011;67256;51.154;4.164;2023-04-24T09:41:31;10.18;;;3.72;;
76292;SDS011;67256;51.154;4.164;2023-04-24T09:44:01;8.40;;;2.90;;
76292;SDS011;67256;51.154;4.164;2023-04-24T09:46:42;6.75;;;2.75;;
76292;SDS011;67256;51.154;4.164;2023-04-24T09:49:11;12.50;;;3.58;;
76292;SDS011;67256;51.154;4.164;2023-04-24T09:51:39;8.57;;;2.92;;
76292;SDS011;67256;51.154;4.164;2023-04-24T09:54:11;13.85;;;3.28;;
76292;SDS011;67256;51.154;4.164;2023-04-24T09:56:41;9.95;;;2.55;;
76292;SDS011;67256;51.154;4.164;2023-04-24T09:59:09;9.40;;;2.67;;
76292;SDS011;67256;51.154;4.164;2023-04-24T10:01:35;10.10;;;2.90;;
76292;SDS011;67256;51.154;4.164;2023-04-24T10:04:03;7.55;;;2.88;;
76292;SDS011;67256;51.154;4.164;2023-04-24T10:06:35;10.13;;;2.60;;
76292;SDS011;67256;51.154;4.164;2023-04-24T10:09:01;9.85;;;2.65;;
76292;SDS011;67256;51.154;4.164;2023-04-24T10:11:28;10.73;;;2.67;;
76292;SDS011;67256;51.154;4.164;2023-04-24T10:13:55;10.38;;;2.75;;
76292;SDS011;67256;51.154;4.164;2023-04-24T10:16:22;8.18;;;3.03;;
76292;SDS011;67256;51.154;4.164;2023-04-24T10:18:49;8.55;;;2.50;;
76292;SDS011;67256;51.154;4.164;2023-04-24T10:21:16;12.82;;;3.70;;
76292;SDS011;67256;51.154;4.164;2023-04-24T10:23:42;7.00;;;2.97;;
76292;SDS011;67256;51.154;4.164;2023-04-24T10:26:12;13.90;;;3.65;;
76292;SDS011;67256;51.154;4.164;2023-04-24T10:28:45;11.00;;;2.85;;
76292;SDS011;67256;51.154;4.164;2023-04-24T10:31:12;10.95;;;2.63;;
76292;SDS011;67256;51.154;4.164;2023-04-24T10:33:43;10.85;;;3.10;;
76292;SDS011;67256;51.154;4.164;2023-04-24T10:36:10;8.68;;;3.25;;
76292;SDS011;67256;51.154;4.164;2023-04-24T10:38:39;10.50;;;2.60;;
76292;SDS011;67256;51.154;4.164;2023-04-24T10:41:10;19.17;;;4.22;;
76292;SDS011;67256;51.154;4.164;2023-04-24T10:43:44;11.43;;;3.33;;
76292;SDS011;67256;51.154;4.164;2023-04-24T10:46:10;9.82;;;2.88;;
76292;SDS011;67256;51.154;4.164;2023-04-24T10:48:44;14.93;;;3.72;;
76292;SDS011;67256;51.154;4.164;2023-04-24T10:51:21;8.60;;;2.92;;
76292;SDS011;67256;51.154;4.164;2023-04-24T10:53:47;8.60;;;3.13;;
76292;SDS011;67256;51.154;4.164;2023-04-24T10:56:17;7.38;;;3.63;;
76292;SDS011;67256;51.154;4.164;2023-04-24T10:58:44;9.88;;;3.22;;
76292;SDS011;67256;51.154;4.164;2023-04-24T11:01:24;9.73;;;2.72;;
76292;SDS011;67256;51.154;4.164;2023-04-24T11:03:55;11.43;;;2.55;;
76292;SDS011;67256;51.154;4.164;2023-04-24T11:06:28;11.35;;;2.13;;
76292;SDS011;67256;51.154;4.164;2023-04-24T11:08:57;7.40;;;1.60;;
76292;SDS011;67256;51.154;4.164;2023-04-24T11:11:29;6.90;;;1.98;;
76292;SDS011;67256;51.154;4.164;2023-04-24T11:16:30;7.78;;;2.20;;
76292;SDS011;67256;51.154;4.164;2023-04-24T11:21:44;6.45;;;2.13;;
76292;SDS011;67256;51.154;4.164;2023-04-24T11:26:55;11.02;;;2.17;;
76292;SDS011;67256;51.154;4.164;2023-04-24T11:32:36;6.30;;;1.73;;
76292;SDS011;67256;51.154;4.164;2023-04-24T11:35:04;6.75;;;1.92;;
76292;SDS011;67256;51.154;4.164;2023-04-24T11:37:34;9.10;;;2.58;;
76292;SDS011;67256;51.154;4.164;2023-04-24T11:40:01;5.78;;;2.00;;
76292;SDS011;67256;51.154;4.164;2023-04-24T11:42:28;5.82;;;1.52;;
76292;SDS011;67256;51.154;4.164;2023-04-24T11:44:59;4.65;;;1.90;;
76292;SDS011;67256;51.154;4.164;2023-04-24T11:47:29;8.02;;;2.08;;
76292;SDS011;67256;51.154;4.164;2023-04-24T11:49:58;5.32;;;1.45;;
76292;SDS011;67256;51.154;4.164;2023-04-24T11:52:24;6.05;;;1.83;;
76292;SDS011;67256;51.154;4.164;2023-04-24T11:54:50;5.60;;;1.80;;
76292;SDS011;67256;51.154;4.164;2023-04-24T11:57:16;5.50;;;1.30;;
76292;SDS011;67256;51.154;4.164;2023-04-24T11:59:45;5.50;;;2.40;;
76292;SDS011;67256;51.154;4.164;2023-04-24T12:02:21;4.03;;;1.70;;
76292;SDS011;67256;51.154;4.164;2023-04-24T12:04:47;4.88;;;1.75;;
76292;SDS011;67256;51.154;4.164;2023-04-24T12:07:13;5.88;;;1.80;;
76292;SDS011;67256;51.154;4.164;2023-04-24T12:09:43;5.03;;;1.42;;
76292;SDS011;67256;51.154;4.164;2023-04-24T12:12:17;5.00;;;1.55;;
76292;SDS011;67256;51.154;4.164;2023-04-24T12:17:17;5.10;;;1.65;;
76292;SDS011;67256;51.154;4.164;2023-04-24T12:19:48;4.30;;;1.60;;
76292;SDS011;67256;51.154;4.164;2023-04-24T12:22:15;5.30;;;1.65;;
76292;SDS011;67256;51.154;4.164;2023-04-24T12:25:00;7.90;;;2.25;;
76292;SDS011;67256;51.154;4.164;2023-04-24T12:27:33;5.65;;;1.85;;
76292;SDS011;67256;51.154;4.164;2023-04-24T12:29:59;9.43;;;1.73;;
76292;SDS011;67256;51.154;4.164;2023-04-24T12:32:27;4.53;;;1.90;;
76292;SDS011;67256;51.154;4.164;2023-04-24T12:34:53;6.13;;;2.28;;
76292;SDS011;67256;51.154;4.164;2023-04-24T12:37:19;6.63;;;1.88;;
76292;SDS011;67256;51.154;4.164;2023-04-24T12:42:32;9.65;;;2.60;;
76292;SDS011;67256;51.154;4.164;2023-04-24T12:44:59;7.45;;;2.20;;
76292;SDS011;67256;51.154;4.164;2023-04-24T12:47:26;9.82;;;2.40;;
76292;SDS011;67256;51.154;4.164;2023-04-24T12:49:53;5.85;;;1.88;;
76292;SDS011;67256;51.154;4.164;2023-04-24T12:52:20;8.48;;;2.45;;
76292;SDS011;67256;51.154;4.164;2023-04-24T12:54:59;6.20;;;2.15;;
76292;SDS011;67256;51.154;4.164;2023-04-24T12:57:25;7.28;;;2.08;;
76292;SDS011;67256;51.154;4.164;2023-04-24T12:59:58;9.07;;;2.58;;
76292;SDS011;67256;51.154;4.164;2023-04-24T13:02:24;10.23;;;1.95;;
76292;SDS011;67256;51.154;4.164;2023-04-24T13:04:51;7.32;;;1.42;;
76292;SDS011;67256;51.154;4.164;2023-04-24T13:07:17;7.10;;;1.70;;
76292;SDS011;67256;51.154;4.164;2023-04-24T13:09:43;5.45;;;1.63;;
76292;SDS011;67256;51.154;4.164;2023-04-24T13:12:09;5.20;;;1.30;;
76292;SDS011;67256;51.154;4.164;2023-04-24T13:14:36;3.53;;;1.38;;
76292;SDS011;67256;51.154;4.164;2023-04-24T13:17:02;4.65;;;1.40;;
76292;SDS011;67256;51.154;4.164;2023-04-24T13:19:28;4.63;;;0.90;;
76292;SDS011;67256;51.154;4.164;2023-04-24T13:21:55;3.67;;;1.25;;
76292;SDS011;67256;51.154;4.164;2023-04-24T13:24:22;4.65;;;1.40;;
76292;SDS011;67256;51.154;4.164;2023-04-24T13:26:54;1.98;;;1.05;;
76292;SDS011;67256;51.154;4.164;2023-04-24T13:29:21;3.42;;;0.82;;
76292;SDS011;67256;51.154;4.164;2023-04-24T13:31:47;3.97;;;1.48;;
76292;SDS011;67256;51.154;4.164;2023-04-24T13:34:14;3.30;;;1.35;;
76292;SDS011;67256;51.154;4.164;2023-04-24T13:36:40;3.75;;;1.17;;
76292;SDS011;67256;51.154;4.164;2023-04-24T13:39:06;3.95;;;1.63;;
76292;SDS011;67256;51.154;4.164;2023-04-24T13:41:32;3.92;;;1.25;;
76292;SDS011;67256;51.154;4.164;2023-04-24T13:43:58;3.22;;;1.27;;
76292;SDS011;67256;51.154;4.164;2023-04-24T13:46:23;1.90;;;1.52;;
76292;SDS011;67256;51.154;4.164;2023-04-24T13:48:49;3.63;;;1.00;;
76292;SDS011;67256;51.154;4.164;2023-04-24T13:51:15;2.63;;;1.20;;
76292;SDS011;67256;51.154;4.164;2023-04-24T13:53:40;8.00;;;1.48;;
76292;SDS011;67256;51.154;4.164;2023-04-24T13:56:06;8.23;;;1.30;;
76292;SDS011;67256;51.154;4.164;2023-04-24T13:58:33;3.38;;;1.40;;
76292;SDS011;67256;51.154;4.164;2023-04-24T14:00:58;3.08;;;0.98;;
76292;SDS011;67256;51.154;4.164;2023-04-24T14:03:24;3.08;;;1.08;;
76292;SDS011;67256;51.154;4.164;2023-04-24T14:05:50;5.20;;;1.40;;
76292;SDS011;67256;51.154;4.164;2023-04-24T14:08:16;6.28;;;1.50;;
76292;SDS011;67256;51.154;4.164;2023-04-24T14:10:42;1.88;;;1.00;;
76292;SDS011;67256;51.154;4.164;2023-04-24T14:13:08;5.57;;;1.60;;
76292;SDS011;67256;51.154;4.164;2023-04-24T14:15:35;5.75;;;2.17;;
76292;SDS011;67256;51.154;4.164;2023-04-24T14:18:01;2.65;;;1.10;;
76292;SDS011;67256;51.154;4.164;2023-04-24T14:20:28;3.47;;;1.30;;
76292;SDS011;67256;51.154;4.164;2023-04-24T14:23:00;6.05;;;1.50;;
76292;SDS011;67256;51.154;4.164;2023-04-24T14:25:25;3.55;;;1.45;;
76292;SDS011;67256;51.154;4.164;2023-04-24T14:27:51;4.40;;;1.23;;
76292;SDS011;67256;51.154;4.164;2023-04-24T14:30:17;3.08;;;1.00;;
76292;SDS011;67256;51.154;4.164;2023-04-24T14:32:43;2.47;;;1.23;;
76292;SDS011;67256;51.154;4.164;2023-04-24T14:35:09;3.47;;;1.10;;
76292;SDS011;67256;51.154;4.164;2023-04-24T14:37:34;3.00;;;1.20;;
76292;SDS011;67256;51.154;4.164;2023-04-24T14:40:01;4.15;;;1.30;;
76292;SDS011;67256;51.154;4.164;2023-04-24T14:42:27;5.95;;;1.60;;
76292;SDS011;67256;51.154;4.164;2023-04-24T14:44:53;2.63;;;1.60;;
76292;SDS011;67256;51.154;4.164;2023-04-24T14:47:20;6.53;;;1.60;;
76292;SDS011;67256;51.154;4.164;2023-04-24T14:49:48;3.13;;;1.20;;